createdAt,value
2022-12-06T00:00:14.700Z,430
2022-12-06T00:01:13.270Z,427
2022-12-06T00:04:13.128Z,444
2022-12-06T00:05:13.391Z,438
2022-12-06T00:06:12.617Z,443
2022-12-06T00:07:12.656Z,426
2022-12-06T00:08:13.195Z,432
2022-12-06T00:09:12.733Z,412
2022-12-06T00:10:14.022Z,420
2022-12-06T00:11:13.203Z,436
2022-12-06T00:12:13.554Z,440
2022-12-06T00:13:13.509Z,439
2022-12-06T00:14:13.430Z,434
2022-12-06T00:15:13.275Z,433
2022-12-06T00:16:13.056Z,438
2022-12-06T00:17:12.653Z,432
2022-12-06T00:18:31.773Z,435
2022-12-06T00:19:12.940Z,440
2022-12-06T00:20:13.943Z,438
2022-12-06T00:21:13.391Z,430
2022-12-06T00:22:13.349Z,425
2022-12-06T00:23:13.065Z,438
2022-12-06T00:24:13.617Z,432
2022-12-06T00:25:13.282Z,423
2022-12-06T00:26:13.601Z,429
2022-12-06T00:27:14.036Z,440
2022-12-06T00:28:13.006Z,442
2022-12-06T00:29:13.631Z,429
2022-12-06T00:30:36.135Z,419
2022-12-06T00:31:13.134Z,450
2022-12-06T00:32:19.037Z,423
2022-12-06T00:33:13.535Z,427
2022-12-06T00:34:13.501Z,430
2022-12-06T00:35:13.562Z,431
2022-12-06T00:36:12.702Z,428
2022-12-06T00:37:13.773Z,418
2022-12-06T00:38:13.409Z,415
2022-12-06T00:39:13.681Z,414
2022-12-06T00:40:13.594Z,424
2022-12-06T00:41:13.281Z,429
2022-12-06T00:42:13.535Z,419
2022-12-06T00:43:13.510Z,427
2022-12-06T00:44:13.499Z,422
2022-12-06T00:45:14.208Z,419
2022-12-06T00:46:13.221Z,406
2022-12-06T00:47:13.295Z,405
2022-12-06T00:48:13.438Z,414
2022-12-06T00:49:13.273Z,425
2022-12-06T00:50:13.094Z,428
2022-12-06T00:51:12.790Z,416
2022-12-06T00:52:13.354Z,408
2022-12-06T00:53:13.131Z,443
2022-12-06T00:54:14.232Z,426
2022-12-06T00:55:13.884Z,424
2022-12-06T00:56:13.703Z,425
2022-12-06T00:57:13.655Z,427
2022-12-06T00:58:14.390Z,428
2022-12-06T00:59:13.567Z,425
2022-12-06T01:00:14.581Z,427
2022-12-06T01:01:14.920Z,418
2022-12-06T01:02:13.527Z,424
2022-12-06T01:03:14.099Z,418
2022-12-06T01:04:13.609Z,425
2022-12-06T01:05:13.905Z,423
2022-12-06T01:06:14.569Z,415
2022-12-06T01:07:13.061Z,409
2022-12-06T01:08:13.558Z,422
2022-12-06T01:09:13.116Z,424
2022-12-06T01:10:13.164Z,425
2022-12-06T01:11:13.852Z,426
2022-12-06T01:12:13.644Z,425
2022-12-06T01:13:13.447Z,430
2022-12-06T01:14:13.069Z,428
2022-12-06T01:15:14.494Z,419
2022-12-06T01:16:13.952Z,427
2022-12-06T01:17:13.295Z,411
2022-12-06T01:18:12.684Z,417
2022-12-06T01:19:13.549Z,428
2022-12-06T01:20:13.817Z,424
2022-12-06T01:21:13.411Z,434
2022-12-06T01:22:13.379Z,428
2022-12-06T01:24:13.738Z,429
2022-12-06T01:25:13.674Z,435
2022-12-06T01:26:12.601Z,422
2022-12-06T01:27:13.961Z,423
2022-12-06T01:28:13.466Z,424
2022-12-06T01:29:12.887Z,428
2022-12-06T01:30:13.934Z,425
2022-12-06T01:31:13.134Z,423
2022-12-06T01:32:13.101Z,429
2022-12-06T01:33:12.814Z,427
2022-12-06T01:34:12.721Z,420
2022-12-06T01:35:13.135Z,417
2022-12-06T01:36:13.049Z,412
2022-12-06T01:37:12.967Z,406
2022-12-06T01:38:13.517Z,429
2022-12-06T01:39:13.425Z,433
2022-12-06T01:40:12.461Z,399
2022-12-06T01:41:13.121Z,408
2022-12-06T01:42:13.560Z,406
2022-12-06T01:43:13.652Z,411
2022-12-06T01:44:18.457Z,408
2022-12-06T01:45:14.144Z,406
2022-12-06T01:46:14.084Z,407
2022-12-06T01:47:13.814Z,405
2022-12-06T01:48:13.323Z,407
2022-12-06T01:49:14.203Z,401
2022-12-06T01:51:13.286Z,406
2022-12-06T01:52:13.456Z,405
2022-12-06T01:53:12.896Z,401
2022-12-06T01:54:13.260Z,400
2022-12-06T01:55:14.314Z,390
2022-12-06T01:57:13.840Z,404
2022-12-06T01:58:13.256Z,403
2022-12-06T01:59:12.847Z,410
2022-12-06T02:00:14.988Z,406
2022-12-06T02:01:13.952Z,415
2022-12-06T02:02:13.244Z,385
2022-12-06T02:03:18.077Z,392
2022-12-06T02:04:13.454Z,391
2022-12-06T02:05:13.054Z,396
2022-12-06T02:06:13.600Z,392
2022-12-06T02:07:13.278Z,398
2022-12-06T02:08:13.019Z,406
2022-12-06T02:09:12.894Z,404
2022-12-06T02:10:14.399Z,388
2022-12-06T02:11:12.946Z,390
2022-12-06T02:12:13.409Z,386
2022-12-06T02:13:12.960Z,382
2022-12-06T02:14:13.549Z,396
2022-12-06T02:15:13.141Z,398
2022-12-06T02:16:13.380Z,391
2022-12-06T02:17:21.031Z,389
2022-12-06T02:18:13.576Z,386
2022-12-06T02:19:12.962Z,397
2022-12-06T02:20:13.668Z,404
2022-12-06T02:21:13.269Z,394
2022-12-06T02:22:12.341Z,395
2022-12-06T02:23:13.063Z,396
2022-12-06T02:24:13.124Z,394
2022-12-06T02:25:13.226Z,399
2022-12-06T02:26:13.542Z,405
2022-12-06T02:27:13.614Z,390
2022-12-06T02:28:13.384Z,388
2022-12-06T02:29:26.784Z,394
2022-12-06T02:30:13.948Z,398
2022-12-06T02:31:13.885Z,403
2022-12-06T02:32:14.232Z,405
2022-12-06T02:33:13.119Z,387
2022-12-06T02:34:12.668Z,382
2022-12-06T02:35:13.797Z,393
2022-12-06T02:36:13.535Z,399
2022-12-06T02:37:13.299Z,397
2022-12-06T02:38:13.296Z,384
2022-12-06T02:39:31.582Z,392
2022-12-06T02:40:13.147Z,394
2022-12-06T02:41:14.000Z,397
2022-12-06T02:42:13.662Z,384
2022-12-06T02:43:13.423Z,394
2022-12-06T02:44:12.405Z,395
2022-12-06T02:45:13.671Z,404
2022-12-06T02:46:13.568Z,399
2022-12-06T02:48:12.899Z,405
2022-12-06T02:49:35.204Z,396
2022-12-06T02:50:13.370Z,404
2022-12-06T02:51:12.996Z,395
2022-12-06T02:52:13.172Z,393
2022-12-06T02:53:12.972Z,390
2022-12-06T02:54:13.692Z,387
2022-12-06T02:55:13.375Z,389
2022-12-06T02:56:12.688Z,402
2022-12-06T02:57:13.303Z,392
2022-12-06T02:58:13.892Z,398
2022-12-06T02:59:13.723Z,395
2022-12-06T03:00:14.520Z,394
2022-12-06T03:01:13.424Z,402
2022-12-06T03:02:12.591Z,395
2022-12-06T03:03:12.743Z,397
2022-12-06T03:04:13.080Z,392
2022-12-06T03:05:14.622Z,394
2022-12-06T03:06:13.360Z,408
2022-12-06T03:08:13.813Z,394
2022-12-06T03:09:13.321Z,382
2022-12-06T03:10:13.262Z,412
2022-12-06T03:12:13.447Z,391
2022-12-06T03:13:13.460Z,388
2022-12-06T03:14:14.940Z,392
2022-12-06T03:15:14.535Z,400
2022-12-06T03:16:13.251Z,392
2022-12-06T03:17:12.805Z,389
2022-12-06T03:18:13.595Z,393
2022-12-06T03:20:13.129Z,388
2022-12-06T03:22:13.698Z,400
2022-12-06T03:23:13.459Z,394
2022-12-06T03:24:13.014Z,395
2022-12-06T03:25:13.814Z,391
2022-12-06T03:26:13.453Z,399
2022-12-06T03:27:12.988Z,402
2022-12-06T03:28:13.506Z,400
2022-12-06T03:29:13.235Z,398
2022-12-06T03:30:12.989Z,406
2022-12-06T03:31:12.899Z,397
2022-12-06T03:32:13.607Z,424
2022-12-06T03:33:13.922Z,412
2022-12-06T03:34:12.790Z,386
2022-12-06T03:36:13.336Z,406
2022-12-06T03:37:12.815Z,403
2022-12-06T03:38:13.367Z,404
2022-12-06T03:39:13.498Z,398
2022-12-06T03:40:13.485Z,395
2022-12-06T03:41:12.442Z,401
2022-12-06T03:42:13.499Z,396
2022-12-06T03:43:13.064Z,403
2022-12-06T03:44:13.584Z,407
2022-12-06T03:45:14.084Z,412
2022-12-06T03:46:12.840Z,400
2022-12-06T03:47:15.929Z,388
2022-12-06T03:48:13.350Z,397
2022-12-06T03:50:13.058Z,400
2022-12-06T03:51:13.015Z,396
2022-12-06T03:52:13.919Z,397
2022-12-06T03:54:13.771Z,392
2022-12-06T03:55:13.761Z,413
2022-12-06T03:56:13.522Z,389
2022-12-06T03:58:13.049Z,382
2022-12-06T03:59:13.307Z,378
2022-12-06T04:00:13.519Z,377
2022-12-06T04:01:13.367Z,373
2022-12-06T04:02:13.508Z,385
2022-12-06T04:03:13.318Z,393
2022-12-06T04:04:13.427Z,391
2022-12-06T04:06:13.512Z,396
2022-12-06T04:07:12.847Z,392
2022-12-06T04:08:13.422Z,398
2022-12-06T04:09:13.458Z,391
2022-12-06T04:10:12.484Z,396
2022-12-06T04:11:13.464Z,395
2022-12-06T04:12:13.376Z,385
2022-12-06T04:14:12.988Z,393
2022-12-06T04:15:14.291Z,389
2022-12-06T04:16:13.103Z,390
2022-12-06T04:17:13.489Z,395
2022-12-06T04:18:13.197Z,410
2022-12-06T04:19:12.910Z,389
2022-12-06T04:20:13.255Z,397
2022-12-06T04:21:12.802Z,404
2022-12-06T04:22:12.982Z,393
2022-12-06T04:23:12.891Z,391
2022-12-06T04:24:12.773Z,406
2022-12-06T04:25:12.735Z,410
2022-12-06T04:26:12.800Z,399
2022-12-06T04:27:13.345Z,404
2022-12-06T04:28:13.541Z,401
2022-12-06T04:29:13.389Z,391
2022-12-06T04:30:13.681Z,393
2022-12-06T04:31:18.565Z,398
2022-12-06T04:32:13.095Z,403
2022-12-06T04:33:13.682Z,390
2022-12-06T04:34:13.330Z,392
2022-12-06T04:35:13.507Z,388
2022-12-06T04:36:18.458Z,391
2022-12-06T04:37:13.785Z,401
2022-12-06T04:38:18.579Z,392
2022-12-06T04:39:17.613Z,402
2022-12-06T04:41:13.665Z,387
2022-12-06T04:42:13.481Z,390
2022-12-06T04:43:12.915Z,396
2022-12-06T04:44:13.041Z,398
2022-12-06T04:45:13.883Z,396
2022-12-06T04:46:13.420Z,393
2022-12-06T04:47:13.703Z,397
2022-12-06T04:48:13.531Z,403
2022-12-06T04:49:13.363Z,396
2022-12-06T04:50:13.701Z,385
2022-12-06T04:51:13.675Z,401
2022-12-06T04:52:13.150Z,397
2022-12-06T04:53:13.896Z,385
2022-12-06T04:54:13.886Z,391
2022-12-06T04:55:13.664Z,397
2022-12-06T04:56:13.471Z,391
2022-12-06T04:57:13.070Z,401
2022-12-06T04:58:13.972Z,389
2022-12-06T04:59:13.511Z,388
2022-12-06T05:00:13.805Z,398
2022-12-06T05:01:13.780Z,396
2022-12-06T05:02:28.043Z,388
2022-12-06T05:03:13.707Z,391
2022-12-06T05:04:13.329Z,387
2022-12-06T05:05:12.848Z,394
2022-12-06T05:06:13.014Z,390
2022-12-06T05:07:13.862Z,382
2022-12-06T05:08:13.868Z,387
2022-12-06T05:09:13.412Z,391
2022-12-06T05:10:13.299Z,390
2022-12-06T05:11:13.399Z,399
2022-12-06T05:12:13.440Z,402
2022-12-06T05:13:13.261Z,393
2022-12-06T05:14:12.907Z,399
2022-12-06T05:16:13.651Z,398
2022-12-06T05:19:13.935Z,389
2022-12-06T05:20:35.350Z,387
2022-12-06T05:21:13.370Z,386
2022-12-06T05:23:13.223Z,392
2022-12-06T05:24:13.578Z,379
2022-12-06T05:25:13.489Z,380
2022-12-06T05:26:13.325Z,385
2022-12-06T05:27:13.675Z,395
2022-12-06T05:28:13.504Z,399
2022-12-06T05:29:13.412Z,394
2022-12-06T05:30:14.083Z,393
2022-12-06T05:31:13.349Z,394
2022-12-06T05:32:12.735Z,400
2022-12-06T05:33:13.860Z,396
2022-12-06T05:34:13.444Z,391
2022-12-06T05:35:14.426Z,393
2022-12-06T05:36:13.714Z,387
2022-12-06T05:37:13.902Z,392
2022-12-06T05:38:14.045Z,394
2022-12-06T05:39:13.289Z,400
2022-12-06T05:40:13.310Z,395
2022-12-06T05:41:13.364Z,403
2022-12-06T05:42:22.075Z,405
2022-12-06T05:43:12.762Z,400
2022-12-06T05:44:13.364Z,399
2022-12-06T05:45:14.017Z,397
2022-12-06T05:46:14.266Z,394
2022-12-06T05:47:13.415Z,390
2022-12-06T05:48:13.336Z,377
2022-12-06T05:49:13.615Z,404
2022-12-06T05:50:13.754Z,392
2022-12-06T05:52:13.408Z,398
2022-12-06T05:53:13.501Z,402
2022-12-06T05:54:13.795Z,396
2022-12-06T05:55:14.337Z,398
2022-12-06T05:56:13.073Z,406
2022-12-06T05:57:14.252Z,396
2022-12-06T05:58:13.403Z,393
2022-12-06T05:59:13.569Z,396
2022-12-06T06:00:14.628Z,395
2022-12-06T06:01:13.540Z,396
2022-12-06T06:02:13.070Z,397
2022-12-06T06:03:13.269Z,389
2022-12-06T06:04:13.189Z,393
2022-12-06T06:05:13.080Z,406
2022-12-06T06:06:13.612Z,404
2022-12-06T06:07:13.440Z,400
2022-12-06T06:08:13.599Z,392
2022-12-06T06:09:13.849Z,387
2022-12-06T06:10:13.802Z,381
2022-12-06T06:11:13.562Z,408
2022-12-06T06:12:13.246Z,387
2022-12-06T06:13:13.042Z,382
2022-12-06T06:14:13.734Z,391
2022-12-06T06:15:14.725Z,394
2022-12-06T06:16:14.492Z,384
2022-12-06T06:17:12.315Z,386
2022-12-06T06:18:13.576Z,385
2022-12-06T06:19:13.483Z,405
2022-12-06T06:20:13.507Z,408
2022-12-06T06:21:12.624Z,405
2022-12-06T06:22:13.266Z,401
2022-12-06T06:23:13.767Z,394
2022-12-06T06:24:13.380Z,395
2022-12-06T06:25:13.957Z,389
2022-12-06T06:26:12.999Z,390
2022-12-06T06:27:13.899Z,392
2022-12-06T06:28:14.688Z,389
2022-12-06T06:29:14.429Z,395
2022-12-06T06:30:13.406Z,402
2022-12-06T06:31:13.444Z,403
2022-12-06T06:32:14.297Z,397
2022-12-06T06:33:14.103Z,403
2022-12-06T06:34:13.369Z,398
2022-12-06T06:35:13.611Z,397
2022-12-06T06:36:14.007Z,393
2022-12-06T06:38:14.206Z,396
2022-12-06T06:39:13.331Z,399
2022-12-06T06:40:13.357Z,398
2022-12-06T06:41:13.495Z,397
2022-12-06T06:42:13.230Z,394
2022-12-06T06:43:13.583Z,398
2022-12-06T06:44:13.383Z,405
2022-12-06T06:46:13.279Z,404
2022-12-06T06:47:13.155Z,413
2022-12-06T06:48:14.268Z,415
2022-12-06T06:49:13.032Z,416
2022-12-06T06:50:13.062Z,407
2022-12-06T06:51:12.995Z,410
2022-12-06T06:52:13.874Z,402
2022-12-06T06:53:13.339Z,399
2022-12-06T06:54:12.759Z,402
2022-12-06T06:55:19.014Z,403
2022-12-06T06:56:13.846Z,398
2022-12-06T06:57:18.561Z,408
2022-12-06T06:58:13.158Z,403
2022-12-06T06:59:13.173Z,405
2022-12-06T07:00:14.111Z,402
2022-12-06T07:01:18.707Z,396
2022-12-06T07:02:13.965Z,398
2022-12-06T07:03:13.013Z,405
2022-12-06T07:04:13.722Z,410
2022-12-06T07:05:18.896Z,399
2022-12-06T07:06:12.993Z,391
2022-12-06T07:07:20.608Z,394
2022-12-06T07:08:12.881Z,405
2022-12-06T07:09:21.715Z,401
2022-12-06T07:10:13.848Z,405
2022-12-06T07:11:13.893Z,401
2022-12-06T07:12:13.901Z,397
2022-12-06T07:13:13.088Z,402
2022-12-06T07:14:14.570Z,393
2022-12-06T07:15:14.452Z,390
2022-12-06T07:16:13.470Z,387
2022-12-06T07:17:14.135Z,400
2022-12-06T07:18:13.361Z,399
2022-12-06T07:19:13.085Z,389
2022-12-06T07:20:14.310Z,412
2022-12-06T07:21:13.828Z,402
2022-12-06T07:22:13.588Z,398
2022-12-06T07:23:13.224Z,401
2022-12-06T07:24:13.707Z,390
2022-12-06T07:25:28.592Z,394
2022-12-06T07:26:13.267Z,400
2022-12-06T07:27:14.405Z,399
2022-12-06T07:28:13.128Z,405
2022-12-06T07:29:13.816Z,406
2022-12-06T07:30:17.000Z,396
2022-12-06T07:31:13.743Z,390
2022-12-06T07:32:13.419Z,395
2022-12-06T07:33:12.958Z,398
2022-12-06T07:34:14.441Z,403
2022-12-06T07:35:14.428Z,404
2022-12-06T07:36:14.340Z,401
2022-12-06T07:37:13.573Z,397
2022-12-06T07:38:13.740Z,391
2022-12-06T07:39:15.145Z,389
2022-12-06T07:40:13.369Z,390
2022-12-06T07:42:13.995Z,405
2022-12-06T07:43:12.581Z,403
2022-12-06T07:45:35.477Z,396
2022-12-06T07:46:14.261Z,399
2022-12-06T07:47:13.776Z,406
2022-12-06T07:48:13.367Z,404
2022-12-06T07:50:17.875Z,418
2022-12-06T07:51:13.463Z,411
2022-12-06T07:52:13.557Z,399
2022-12-06T07:53:13.742Z,389
2022-12-06T07:54:13.899Z,387
2022-12-06T07:55:13.173Z,399
2022-12-06T07:56:13.449Z,402
2022-12-06T07:58:13.141Z,402
2022-12-06T07:59:13.591Z,401
2022-12-06T08:00:15.271Z,397
2022-12-06T08:02:14.269Z,413
2022-12-06T08:04:13.505Z,403
2022-12-06T08:05:13.113Z,417
2022-12-06T08:06:13.260Z,399
2022-12-06T08:07:13.522Z,398
2022-12-06T08:08:14.032Z,401
2022-12-06T08:09:12.857Z,402
2022-12-06T08:10:14.417Z,404
2022-12-06T08:11:13.525Z,409
2022-12-06T08:13:13.590Z,390
2022-12-06T08:14:13.360Z,398
2022-12-06T08:15:13.813Z,414
2022-12-06T08:16:13.380Z,398
2022-12-06T08:17:14.170Z,396
2022-12-06T08:18:13.549Z,393
2022-12-06T08:19:13.796Z,390
2022-12-06T08:20:14.391Z,392
2022-12-06T08:21:13.339Z,401
2022-12-06T08:22:13.576Z,397
2022-12-06T08:23:14.144Z,402
2022-12-06T08:24:13.055Z,396
2022-12-06T08:25:13.119Z,399
2022-12-06T08:26:12.862Z,393
2022-12-06T08:27:13.506Z,395
2022-12-06T08:28:13.262Z,408
2022-12-06T08:29:13.604Z,403
2022-12-06T08:30:13.932Z,398
2022-12-06T08:32:14.192Z,399
2022-12-06T08:33:13.918Z,402
2022-12-06T08:34:13.457Z,407
2022-12-06T08:35:14.210Z,401
2022-12-06T08:36:14.219Z,405
2022-12-06T08:37:13.857Z,397
2022-12-06T08:38:14.426Z,399
2022-12-06T08:39:13.868Z,403
2022-12-06T08:40:14.392Z,408
2022-12-06T08:41:13.779Z,404
2022-12-06T08:42:14.529Z,403
2022-12-06T08:43:13.800Z,401
2022-12-06T08:44:13.994Z,402
2022-12-06T08:45:13.283Z,403
2022-12-06T08:46:13.220Z,396
2022-12-06T08:47:13.657Z,404
2022-12-06T08:48:14.082Z,405
2022-12-06T08:49:13.765Z,389
2022-12-06T08:50:14.172Z,421
2022-12-06T08:51:13.735Z,391
2022-12-06T08:52:13.562Z,404
2022-12-06T08:54:14.099Z,401
2022-12-06T08:55:13.272Z,403
2022-12-06T08:56:13.342Z,392
2022-12-06T08:57:13.713Z,402
2022-12-06T08:58:13.703Z,403
2022-12-06T08:59:13.776Z,401
2022-12-06T09:00:14.476Z,389
2022-12-06T09:01:14.530Z,391
2022-12-06T09:02:13.910Z,398
2022-12-06T09:03:13.159Z,406
2022-12-06T09:04:13.140Z,398
2022-12-06T09:05:13.654Z,387
2022-12-06T09:06:12.101Z,394
2022-12-06T09:07:14.624Z,398
2022-12-06T09:08:13.931Z,400
2022-12-06T09:09:13.697Z,395
2022-12-06T09:10:13.811Z,406
2022-12-06T09:11:14.148Z,404
2022-12-06T09:13:13.137Z,374
2022-12-06T09:14:19.572Z,391
2022-12-06T09:15:14.059Z,400
2022-12-06T09:16:13.256Z,393
2022-12-06T09:17:13.691Z,394
2022-12-06T09:18:14.244Z,392
2022-12-06T09:19:14.477Z,397
2022-12-06T09:21:13.159Z,400
2022-12-06T09:22:13.995Z,396
2022-12-06T09:23:12.878Z,390
2022-12-06T09:24:14.145Z,386
2022-12-06T09:25:13.688Z,387
2022-12-06T09:26:13.733Z,392
2022-12-06T09:27:13.308Z,397
2022-12-06T09:28:14.371Z,388
2022-12-06T09:29:14.473Z,389
2022-12-06T09:30:18.996Z,395
2022-12-06T09:31:13.110Z,397
2022-12-06T09:32:21.200Z,398
2022-12-06T09:33:13.337Z,396
2022-12-06T09:34:21.952Z,410
2022-12-06T09:35:15.568Z,409
2022-12-06T09:36:13.722Z,395
2022-12-06T09:37:14.237Z,401
2022-12-06T09:39:14.206Z,397
2022-12-06T09:40:28.006Z,395
2022-12-06T09:41:13.971Z,399
2022-12-06T09:42:13.023Z,406
2022-12-06T09:43:13.298Z,405
2022-12-06T09:44:13.770Z,401
2022-12-06T09:45:14.566Z,403
2022-12-06T09:46:13.529Z,394
2022-12-06T09:47:13.906Z,400
2022-12-06T09:48:13.902Z,398
2022-12-06T09:49:13.719Z,402
2022-12-06T09:50:28.088Z,405
2022-12-06T09:51:13.472Z,403
2022-12-06T09:53:13.175Z,397
2022-12-06T09:54:13.927Z,398
2022-12-06T09:55:14.763Z,392
2022-12-06T09:56:13.976Z,386
2022-12-06T09:57:14.098Z,395
2022-12-06T09:58:13.276Z,400
2022-12-06T09:59:14.264Z,410
2022-12-06T10:00:17.739Z,412
2022-12-06T10:01:14.093Z,404
2022-12-06T10:02:14.072Z,391
2022-12-06T10:03:13.661Z,404
2022-12-06T10:04:12.922Z,401
2022-12-06T10:05:14.259Z,391
2022-12-06T10:06:13.932Z,402
2022-12-06T10:07:13.036Z,401
2022-12-06T10:08:14.094Z,393
2022-12-06T10:09:13.599Z,383
2022-12-06T10:10:14.187Z,387
2022-12-06T10:11:13.551Z,397
2022-12-06T10:12:13.543Z,399
2022-12-06T10:13:13.767Z,394
2022-12-06T10:14:13.793Z,391
2022-12-06T10:15:14.197Z,403
2022-12-06T10:16:13.826Z,395
2022-12-06T10:17:13.074Z,406
2022-12-06T10:18:14.013Z,398
2022-12-06T10:19:12.995Z,393
2022-12-06T10:20:14.249Z,425
2022-12-06T10:21:14.169Z,394
2022-12-06T10:22:13.405Z,387
2022-12-06T10:23:13.395Z,394
2022-12-06T10:24:13.979Z,392
2022-12-06T10:25:13.632Z,394
2022-12-06T10:26:13.925Z,395
2022-12-06T10:27:14.096Z,394
2022-12-06T10:28:12.990Z,390
2022-12-06T10:29:13.456Z,389
2022-12-06T10:30:14.228Z,379
2022-12-06T10:31:13.064Z,386
2022-12-06T10:32:14.123Z,391
2022-12-06T10:33:14.150Z,392
2022-12-06T10:34:13.747Z,397
2022-12-06T10:35:14.097Z,392
2022-12-06T10:36:13.167Z,404
2022-12-06T10:37:13.145Z,406
2022-12-06T10:38:13.311Z,398
2022-12-06T10:39:13.155Z,406
2022-12-06T10:40:13.403Z,411
2022-12-06T10:41:13.843Z,394
2022-12-06T10:42:14.229Z,378
2022-12-06T10:43:14.200Z,411
2022-12-06T10:44:13.607Z,400
2022-12-06T10:45:14.566Z,388
2022-12-06T10:46:13.647Z,394
2022-12-06T10:47:13.564Z,393
2022-12-06T10:48:13.569Z,387
2022-12-06T10:50:13.021Z,389
2022-12-06T10:51:13.097Z,390
2022-12-06T10:53:13.582Z,380
2022-12-06T10:54:12.508Z,383
2022-12-06T10:56:12.757Z,391
2022-12-06T10:57:13.103Z,393
2022-12-06T10:58:13.684Z,398
2022-12-06T10:59:13.111Z,393
2022-12-06T11:00:15.871Z,391
2022-12-06T11:01:13.261Z,387
2022-12-06T11:02:13.579Z,383
2022-12-06T11:03:13.948Z,374
2022-12-06T11:04:13.792Z,380
2022-12-06T11:05:14.152Z,395
2022-12-06T11:06:13.699Z,381
2022-12-06T11:08:14.308Z,384
2022-12-06T11:09:14.019Z,389
2022-12-06T11:10:13.477Z,385
2022-12-06T11:11:13.083Z,386
2022-12-06T11:13:13.136Z,377
2022-12-06T11:14:13.491Z,386
2022-12-06T11:15:14.296Z,393
2022-12-06T11:16:13.618Z,381
2022-12-06T11:17:13.708Z,379
2022-12-06T11:18:13.991Z,373
2022-12-06T11:19:13.786Z,370
2022-12-06T11:20:13.991Z,369
2022-12-06T11:21:13.397Z,380
2022-12-06T11:22:13.442Z,385
2022-12-06T11:23:13.804Z,386
2022-12-06T11:24:14.161Z,378
2022-12-06T11:25:13.692Z,352
2022-12-06T11:26:14.102Z,380
2022-12-06T11:27:13.926Z,369
2022-12-06T11:28:13.566Z,368
2022-12-06T11:29:13.976Z,372
2022-12-06T11:30:16.906Z,377
2022-12-06T11:31:13.478Z,376
2022-12-06T11:32:14.047Z,374
2022-12-06T11:33:13.831Z,377
2022-12-06T11:34:13.599Z,374
2022-12-06T11:35:13.914Z,373
2022-12-06T11:36:13.946Z,367
2022-12-06T11:37:14.500Z,366
2022-12-06T11:38:13.952Z,362
2022-12-06T11:39:13.869Z,370
2022-12-06T11:40:13.422Z,380
2022-12-06T11:41:14.287Z,377
2022-12-06T11:42:13.647Z,384
2022-12-06T11:43:14.096Z,381
2022-12-06T11:44:13.260Z,378
2022-12-06T11:45:14.203Z,387
2022-12-06T11:46:13.899Z,386
2022-12-06T11:48:14.294Z,379
2022-12-06T11:49:19.905Z,381
2022-12-06T11:50:16.934Z,380
2022-12-06T11:51:14.179Z,392
2022-12-06T11:52:12.882Z,391
2022-12-06T11:53:13.583Z,384
2022-12-06T11:54:14.215Z,373
2022-12-06T11:55:14.527Z,377
2022-12-06T11:56:13.731Z,369
2022-12-06T11:58:13.524Z,376
2022-12-06T11:59:13.509Z,378
2022-12-06T12:00:15.209Z,385
2022-12-06T12:01:20.970Z,388
2022-12-06T12:02:19.430Z,378
2022-12-06T12:03:13.612Z,380
2022-12-06T12:04:13.385Z,388
2022-12-06T12:05:14.868Z,381
2022-12-06T12:06:13.998Z,380
2022-12-06T12:07:28.672Z,379
2022-12-06T12:08:14.247Z,376
2022-12-06T12:09:13.900Z,369
2022-12-06T12:10:13.311Z,354
2022-12-06T12:11:13.269Z,402
2022-12-06T12:12:13.219Z,373
2022-12-06T12:13:27.711Z,366
2022-12-06T12:14:13.689Z,375
2022-12-06T12:15:28.664Z,382
2022-12-06T12:16:14.291Z,396
2022-12-06T12:17:27.840Z,377
2022-12-06T12:18:13.965Z,380
2022-12-06T12:19:13.067Z,379
2022-12-06T12:20:13.894Z,381
2022-12-06T12:21:13.051Z,373
2022-12-06T12:22:13.554Z,362
2022-12-06T12:23:13.361Z,365
2022-12-06T12:24:14.339Z,378
2022-12-06T12:25:33.350Z,383
2022-12-06T12:26:13.702Z,379
2022-12-06T12:27:21.173Z,387
2022-12-06T12:28:13.672Z,384
2022-12-06T12:29:13.643Z,377
2022-12-06T12:30:13.689Z,375
2022-12-06T12:31:14.113Z,377
2022-12-06T12:32:13.558Z,380
2022-12-06T12:33:13.253Z,391
2022-12-06T12:34:13.352Z,371
2022-12-06T12:35:13.462Z,367
2022-12-06T12:36:13.523Z,374
2022-12-06T12:37:13.993Z,372
2022-12-06T12:38:13.587Z,375
2022-12-06T12:39:14.052Z,382
2022-12-06T12:40:14.110Z,393
2022-12-06T12:41:13.641Z,396
2022-12-06T12:42:13.630Z,387
2022-12-06T12:43:14.202Z,381
2022-12-06T12:44:36.439Z,380
2022-12-06T12:45:14.322Z,382
2022-12-06T12:46:13.583Z,379
2022-12-06T12:47:14.391Z,381
2022-12-06T12:48:14.093Z,375
2022-12-06T12:49:13.872Z,377
2022-12-06T12:50:14.585Z,380
2022-12-06T12:51:13.182Z,381
2022-12-06T12:52:13.847Z,377
2022-12-06T12:53:13.619Z,388
2022-12-06T12:54:13.585Z,386
2022-12-06T12:55:14.511Z,367
2022-12-06T12:56:13.926Z,397
2022-12-06T12:57:13.581Z,385
2022-12-06T12:58:13.100Z,379
2022-12-06T12:59:14.070Z,371
2022-12-06T13:00:15.034Z,368
2022-12-06T13:01:13.438Z,376
2022-12-06T13:02:14.052Z,383
2022-12-06T13:03:34.806Z,393
2022-12-06T13:04:14.177Z,382
2022-12-06T13:07:14.086Z,378
2022-12-06T13:08:13.578Z,386
2022-12-06T13:09:13.733Z,383
2022-12-06T13:10:13.113Z,378
2022-12-06T13:11:13.395Z,381
2022-12-06T13:12:13.434Z,382
2022-12-06T13:13:13.989Z,383
2022-12-06T13:14:13.243Z,391
2022-12-06T13:15:13.578Z,380
2022-12-06T13:16:14.264Z,372
2022-12-06T13:17:14.436Z,390
2022-12-06T13:18:14.184Z,395
2022-12-06T13:19:14.436Z,372
2022-12-06T13:20:14.618Z,376
2022-12-06T13:21:15.238Z,379
2022-12-06T13:22:14.041Z,366
2022-12-06T13:23:13.743Z,365
2022-12-06T13:24:13.403Z,374
2022-12-06T13:25:14.051Z,372
2022-12-06T13:26:13.108Z,366
2022-12-06T13:27:14.283Z,370
2022-12-06T13:28:14.134Z,380
2022-12-06T13:29:13.589Z,379
2022-12-06T13:30:14.252Z,372
2022-12-06T13:31:13.710Z,374
2022-12-06T13:32:13.616Z,381
2022-12-06T13:33:17.749Z,380
2022-12-06T13:34:13.326Z,376
2022-12-06T13:35:14.383Z,369
2022-12-06T13:36:13.762Z,365
2022-12-06T13:37:13.950Z,372
2022-12-06T13:38:13.820Z,375
2022-12-06T13:39:14.296Z,368
2022-12-06T13:40:14.365Z,379
2022-12-06T13:41:13.902Z,382
2022-12-06T13:42:12.972Z,376
2022-12-06T13:43:13.529Z,372
2022-12-06T13:44:14.117Z,382
2022-12-06T13:45:13.808Z,388
2022-12-06T13:46:14.362Z,380
2022-12-06T13:47:14.399Z,371
2022-12-06T13:48:14.619Z,374
2022-12-06T13:49:13.865Z,376
2022-12-06T13:50:14.158Z,366
2022-12-06T13:51:13.125Z,360
2022-12-06T13:52:13.623Z,363
2022-12-06T13:53:13.588Z,366
2022-12-06T13:54:13.371Z,377
2022-12-06T13:55:17.308Z,385
2022-12-06T13:56:13.713Z,383
2022-12-06T13:57:14.188Z,377
2022-12-06T13:58:13.881Z,373
2022-12-06T13:59:14.124Z,371
2022-12-06T14:00:14.424Z,369
2022-12-06T14:01:13.836Z,362
2022-12-06T14:02:13.251Z,389
2022-12-06T14:03:13.772Z,381
2022-12-06T14:04:13.792Z,379
2022-12-06T14:06:15.937Z,380
2022-12-06T14:08:13.389Z,387
2022-12-06T14:09:14.503Z,377
2022-12-06T14:10:14.308Z,375
2022-12-06T14:11:14.444Z,378
2022-12-06T14:12:14.268Z,382
2022-12-06T14:13:13.288Z,381
2022-12-06T14:14:12.538Z,384
2022-12-06T14:15:13.820Z,383
2022-12-06T14:16:13.048Z,387
2022-12-06T14:17:32.032Z,391
2022-12-06T14:18:13.785Z,384
2022-12-06T14:19:13.158Z,382
2022-12-06T14:20:13.652Z,386
2022-12-06T14:21:13.091Z,380
2022-12-06T14:22:13.841Z,376
2022-12-06T14:23:13.243Z,371
2022-12-06T14:24:13.445Z,382
2022-12-06T14:25:14.760Z,362
2022-12-06T14:26:13.504Z,372
2022-12-06T14:27:14.234Z,380
2022-12-06T14:29:13.810Z,378
2022-12-06T14:30:13.717Z,382
2022-12-06T14:31:13.837Z,385
2022-12-06T14:32:14.012Z,382
2022-12-06T14:33:13.122Z,388
2022-12-06T14:34:27.445Z,385
2022-12-06T14:35:14.089Z,376